sensor_id;sensor_type;location;lat;lon;timestamp;temperature;humidity
23073;DHT22;34865;51.046;3.732;2022-08-02T00:00:43;21.90;99.90
23073;DHT22;34865;51.046;3.732;2022-08-02T00:03:09;21.80;99.90
23073;DHT22;34865;51.046;3.732;2022-08-02T00:05:34;21.90;99.90
23073;DHT22;34865;51.046;3.732;2022-08-02T00:08:00;21.90;99.90
23073;DHT22;34865;51.046;3.732;2022-08-02T00:10:25;21.90;99.90
23073;DHT22;34865;51.046;3.732;2022-08-02T00:12:51;21.80;99.90
23073;DHT22;34865;51.046;3.732;2022-08-02T00:15:18;21.60;99.90
23073;DHT22;34865;51.046;3.732;2022-08-02T00:17:45;21.40;99.90
23073;DHT22;34865;51.046;3.732;2022-08-02T00:20:11;21.50;99.90
23073;DHT22;34865;51.046;3.732;2022-08-02T00:22:37;21.70;99.90
23073;DHT22;34865;51.046;3.732;2022-08-02T00:25:04;21.80;99.90
23073;DHT22;34865;51.046;3.732;2022-08-02T00:27:29;22.00;99.90
23073;DHT22;34865;51.046;3.732;2022-08-02T00:29:55;22.00;99.90
23073;DHT22;34865;51.046;3.732;2022-08-02T00:32:21;22.10;99.90
23073;DHT22;34865;51.046;3.732;2022-08-02T00:34:47;22.10;99.90
23073;DHT22;34865;51.046;3.732;2022-08-02T00:37:13;22.10;99.90
23073;DHT22;34865;51.046;3.732;2022-08-02T00:39:38;22.10;99.90
23073;DHT22;34865;51.046;3.732;2022-08-02T00:42:04;22.10;99.90
23073;DHT22;34865;51.046;3.732;2022-08-02T00:44:30;22.10;99.90
23073;DHT22;34865;51.046;3.732;2022-08-02T00:46:56;22.00;99.90
23073;DHT22;34865;51.046;3.732;2022-08-02T00:49:21;21.90;99.90
23073;DHT22;34865;51.046;3.732;2022-08-02T00:51:47;21.70;99.90
23073;DHT22;34865;51.046;3.732;2022-08-02T00:54:12;21.70;99.90
23073;DHT22;34865;51.046;3.732;2022-08-02T00:56:39;21.50;99.90
23073;DHT22;34865;51.046;3.732;2022-08-02T00:59:04;21.60;99.90
23073;DHT22;34865;51.046;3.732;2022-08-02T01:01:30;21.70;99.90
23073;DHT22;34865;51.046;3.732;2022-08-02T01:04:10;21.60;99.90
23073;DHT22;34865;51.046;3.732;2022-08-02T01:06:40;21.70;99.90
23073;DHT22;34865;51.046;3.732;2022-08-02T01:09:07;21.80;99.90
23073;DHT22;34865;51.046;3.732;2022-08-02T01:11:34;21.50;99.90
23073;DHT22;34865;51.046;3.732;2022-08-02T01:14:11;21.20;99.90
23073;DHT22;34865;51.046;3.732;2022-08-02T01:26:36;20.80;99.90
23073;DHT22;34865;51.046;3.732;2022-08-02T01:29:28;21.10;99.90
23073;DHT22;34865;51.046;3.732;2022-08-02T01:32:10;21.30;99.90
23073;DHT22;34865;51.046;3.732;2022-08-02T01:35:02;21.00;99.90
23073;DHT22;34865;51.046;3.732;2022-08-02T01:37:36;21.10;99.90
23073;DHT22;34865;51.046;3.732;2022-08-02T01:40:10;21.30;99.90
23073;DHT22;34865;51.046;3.732;2022-08-02T01:42:41;21.40;99.90
23073;DHT22;34865;51.046;3.732;2022-08-02T01:45:09;21.40;99.90
23073;DHT22;34865;51.046;3.732;2022-08-02T01:47:38;21.40;99.90
23073;DHT22;34865;51.046;3.732;2022-08-02T01:50:06;21.40;99.90
23073;DHT22;34865;51.046;3.732;2022-08-02T01:52:35;21.20;99.90
23073;DHT22;34865;51.046;3.732;2022-08-02T01:55:19;21.00;99.90
23073;DHT22;34865;51.046;3.732;2022-08-02T01:57:52;20.80;99.90
23073;DHT22;34865;51.046;3.732;2022-08-02T02:00:21;20.90;99.90
23073;DHT22;34865;51.046;3.732;2022-08-02T02:02:48;21.10;99.90
23073;DHT22;34865;51.046;3.732;2022-08-02T02:05:19;21.10;99.90
23073;DHT22;34865;51.046;3.732;2022-08-02T02:07:46;21.10;99.90
23073;DHT22;34865;51.046;3.732;2022-08-02T02:10:15;21.00;99.90
23073;DHT22;34865;51.046;3.732;2022-08-02T02:12:47;20.80;99.90
23073;DHT22;34865;51.046;3.732;2022-08-02T02:15:14;20.60;99.90
23073;DHT22;34865;51.046;3.732;2022-08-02T02:17:45;20.20;99.90
23073;DHT22;34865;51.046;3.732;2022-08-02T02:20:15;20.30;99.90
23073;DHT22;34865;51.046;3.732;2022-08-02T02:22:42;20.50;99.90
23073;DHT22;34865;51.046;3.732;2022-08-02T02:25:09;20.30;99.90
23073;DHT22;34865;51.046;3.732;2022-08-02T02:27:36;20.20;99.90
23073;DHT22;34865;51.046;3.732;2022-08-02T02:30:04;20.10;99.90
23073;DHT22;34865;51.046;3.732;2022-08-02T02:32:31;20.40;99.90
23073;DHT22;34865;51.046;3.732;2022-08-02T02:34:58;20.60;99.90
23073;DHT22;34865;51.046;3.732;2022-08-02T02:37:27;20.60;99.90
23073;DHT22;34865;51.046;3.732;2022-08-02T02:39:54;20.60;99.90
23073;DHT22;34865;51.046;3.732;2022-08-02T02:42:29;20.50;99.90
23073;DHT22;34865;51.046;3.732;2022-08-02T02:44:56;20.40;99.90
23073;DHT22;34865;51.046;3.732;2022-08-02T02:47:23;20.40;99.90
23073;DHT22;34865;51.046;3.732;2022-08-02T02:49:50;20.50;99.90
23073;DHT22;34865;51.046;3.732;2022-08-02T02:52:17;20.30;99.90
23073;DHT22;34865;51.046;3.732;2022-08-02T02:54:46;20.30;99.90
23073;DHT22;34865;51.046;3.732;2022-08-02T02:57:13;20.40;99.90
23073;DHT22;34865;51.046;3.732;2022-08-02T02:59:40;20.40;99.90
23073;DHT22;34865;51.046;3.732;2022-08-02T03:02:06;20.40;99.90
23073;DHT22;34865;51.046;3.732;2022-08-02T03:04:32;20.30;99.90
23073;DHT22;34865;51.046;3.732;2022-08-02T03:06:59;20.10;99.90
23073;DHT22;34865;51.046;3.732;2022-08-02T03:09:26;20.20;99.90
23073;DHT22;34865;51.046;3.732;2022-08-02T03:11:55;20.40;99.90
23073;DHT22;34865;51.046;3.732;2022-08-02T03:14:21;20.40;99.90
23073;DHT22;34865;51.046;3.732;2022-08-02T03:16:52;20.40;99.90
23073;DHT22;34865;51.046;3.732;2022-08-02T03:19:19;20.30;99.90
23073;DHT22;34865;51.046;3.732;2022-08-02T03:21:47;20.40;99.90
23073;DHT22;34865;51.046;3.732;2022-08-02T03:24:13;20.30;99.90
23073;DHT22;34865;51.046;3.732;2022-08-02T03:26:39;20.30;99.90
23073;DHT22;34865;51.046;3.732;2022-08-02T03:29:05;20.10;99.90
23073;DHT22;34865;51.046;3.732;2022-08-02T03:31:31;20.00;99.90
23073;DHT22;34865;51.046;3.732;2022-08-02T03:33:58;20.10;99.90
23073;DHT22;34865;51.046;3.732;2022-08-02T03:36:26;20.20;99.90
23073;DHT22;34865;51.046;3.732;2022-08-02T03:38:54;20.00;99.90
23073;DHT22;34865;51.046;3.732;2022-08-02T03:41:21;20.10;99.90
23073;DHT22;34865;51.046;3.732;2022-08-02T03:43:48;20.00;99.90
23073;DHT22;34865;51.046;3.732;2022-08-02T03:46:17;20.10;99.90
23073;DHT22;34865;51.046;3.732;2022-08-02T03:48:44;20.10;99.90
23073;DHT22;34865;51.046;3.732;2022-08-02T03:51:11;20.10;99.90
23073;DHT22;34865;51.046;3.732;2022-08-02T03:53:37;19.80;99.90
23073;DHT22;34865;51.046;3.732;2022-08-02T03:56:04;19.60;99.90
23073;DHT22;34865;51.046;3.732;2022-08-02T03:58:30;19.40;99.90
23073;DHT22;34865;51.046;3.732;2022-08-02T04:00:57;19.20;99.90
23073;DHT22;34865;51.046;3.732;2022-08-02T04:03:24;18.90;99.90
23073;DHT22;34865;51.046;3.732;2022-08-02T04:05:50;18.80;99.90
23073;DHT22;34865;51.046;3.732;2022-08-02T04:08:16;19.10;99.90
23073;DHT22;34865;51.046;3.732;2022-08-02T04:10:42;19.00;99.90
23073;DHT22;34865;51.046;3.732;2022-08-02T04:13:35;19.00;99.90
23073;DHT22;34865;51.046;3.732;2022-08-02T04:16:20;18.80;99.90
23073;DHT22;34865;51.046;3.732;2022-08-02T04:18:54;18.60;99.90
23073;DHT22;34865;51.046;3.732;2022-08-02T04:21:22;18.60;99.90
23073;DHT22;34865;51.046;3.732;2022-08-02T04:23:49;18.70;99.90
23073;DHT22;34865;51.046;3.732;2022-08-02T04:26:16;18.80;99.90
23073;DHT22;34865;51.046;3.732;2022-08-02T04:28:43;18.60;99.90
23073;DHT22;34865;51.046;3.732;2022-08-02T04:31:09;18.50;99.90
23073;DHT22;34865;51.046;3.732;2022-08-02T04:33:35;18.50;99.90
23073;DHT22;34865;51.046;3.732;2022-08-02T04:36:02;18.40;99.90
23073;DHT22;34865;51.046;3.732;2022-08-02T04:38:27;18.50;99.90
23073;DHT22;34865;51.046;3.732;2022-08-02T04:40:54;18.80;99.90
23073;DHT22;34865;51.046;3.732;2022-08-02T04:43:21;19.00;99.90
23073;DHT22;34865;51.046;3.732;2022-08-02T04:45:49;18.80;99.90
23073;DHT22;34865;51.046;3.732;2022-08-02T04:48:15;18.70;99.90
23073;DHT22;34865;51.046;3.732;2022-08-02T04:50:41;18.70;99.90
23073;DHT22;34865;51.046;3.732;2022-08-02T04:53:07;18.50;99.90
23073;DHT22;34865;51.046;3.732;2022-08-02T04:55:32;18.60;99.90
23073;DHT22;34865;51.046;3.732;2022-08-02T04:57:58;18.50;99.90
23073;DHT22;34865;51.046;3.732;2022-08-02T05:00:25;18.60;99.90
23073;DHT22;34865;51.046;3.732;2022-08-02T05:02:51;18.60;99.90
23073;DHT22;34865;51.046;3.732;2022-08-02T05:05:17;18.60;99.90
23073;DHT22;34865;51.046;3.732;2022-08-02T05:07:43;18.70;99.90
23073;DHT22;34865;51.046;3.732;2022-08-02T05:10:09;18.60;99.90
23073;DHT22;34865;51.046;3.732;2022-08-02T05:12:37;18.50;99.90
23073;DHT22;34865;51.046;3.732;2022-08-02T05:15:02;18.60;99.90
23073;DHT22;34865;51.046;3.732;2022-08-02T05:17:28;19.00;99.90
23073;DHT22;34865;51.046;3.732;2022-08-02T05:19:54;19.10;99.90
23073;DHT22;34865;51.046;3.732;2022-08-02T05:22:19;19.30;99.90
23073;DHT22;34865;51.046;3.732;2022-08-02T05:24:45;19.50;99.90
23073;DHT22;34865;51.046;3.732;2022-08-02T05:27:11;19.60;99.90
23073;DHT22;34865;51.046;3.732;2022-08-02T05:29:36;19.60;99.90
23073;DHT22;34865;51.046;3.732;2022-08-02T05:32:02;19.40;99.90
23073;DHT22;34865;51.046;3.732;2022-08-02T05:34:28;19.30;99.90
23073;DHT22;34865;51.046;3.732;2022-08-02T05:36:53;19.50;99.90
23073;DHT22;34865;51.046;3.732;2022-08-02T05:39:19;19.70;99.90
23073;DHT22;34865;51.046;3.732;2022-08-02T05:41:44;19.50;99.90
23073;DHT22;34865;51.046;3.732;2022-08-02T05:44:10;19.60;99.90
23073;DHT22;34865;51.046;3.732;2022-08-02T05:46:36;19.50;99.90
23073;DHT22;34865;51.046;3.732;2022-08-02T05:49:02;19.30;99.90
23073;DHT22;34865;51.046;3.732;2022-08-02T05:51:42;19.40;99.90
23073;DHT22;34865;51.046;3.732;2022-08-02T05:59:21;19.50;99.90
23073;DHT22;34865;51.046;3.732;2022-08-02T06:01:55;19.40;99.90
23073;DHT22;34865;51.046;3.732;2022-08-02T06:04:33;19.70;99.90
23073;DHT22;34865;51.046;3.732;2022-08-02T06:07:05;19.70;99.90
23073;DHT22;34865;51.046;3.732;2022-08-02T06:09:35;19.60;99.90
23073;DHT22;34865;51.046;3.732;2022-08-02T06:12:02;19.60;99.90
23073;DHT22;34865;51.046;3.732;2022-08-02T06:14:32;19.80;99.90
23073;DHT22;34865;51.046;3.732;2022-08-02T06:17:08;19.90;99.90
23073;DHT22;34865;51.046;3.732;2022-08-02T06:19:36;19.90;99.90
23073;DHT22;34865;51.046;3.732;2022-08-02T06:22:02;19.80;99.90
23073;DHT22;34865;51.046;3.732;2022-08-02T06:24:43;19.60;99.90
23073;DHT22;34865;51.046;3.732;2022-08-02T06:27:12;19.60;99.90
23073;DHT22;34865;51.046;3.732;2022-08-02T06:29:41;19.60;99.90
23073;DHT22;34865;51.046;3.732;2022-08-02T06:32:08;19.60;99.90
23073;DHT22;34865;51.046;3.732;2022-08-02T06:34:40;19.70;99.90
23073;DHT22;34865;51.046;3.732;2022-08-02T06:37:13;19.90;99.90
23073;DHT22;34865;51.046;3.732;2022-08-02T06:39:47;20.00;99.90
23073;DHT22;34865;51.046;3.732;2022-08-02T06:42:18;20.20;99.90
23073;DHT22;34865;51.046;3.732;2022-08-02T06:44:46;20.30;99.90
23073;DHT22;34865;51.046;3.732;2022-08-02T06:47:12;20.40;99.90
23073;DHT22;34865;51.046;3.732;2022-08-02T06:49:38;20.30;99.90
23073;DHT22;34865;51.046;3.732;2022-08-02T06:52:04;20.30;99.90
23073;DHT22;34865;51.046;3.732;2022-08-02T06:54:30;20.40;99.90
23073;DHT22;34865;51.046;3.732;2022-08-02T06:56:56;20.40;99.90
23073;DHT22;34865;51.046;3.732;2022-08-02T06:59:21;20.40;99.90
23073;DHT22;34865;51.046;3.732;2022-08-02T07:01:47;20.60;99.90
23073;DHT22;34865;51.046;3.732;2022-08-02T07:04:13;20.50;99.90
23073;DHT22;34865;51.046;3.732;2022-08-02T07:06:38;20.60;99.90
23073;DHT22;34865;51.046;3.732;2022-08-02T07:09:04;20.60;99.90
23073;DHT22;34865;51.046;3.732;2022-08-02T07:11:30;20.70;99.90
23073;DHT22;34865;51.046;3.732;2022-08-02T07:13:55;20.80;99.90
23073;DHT22;34865;51.046;3.732;2022-08-02T07:16:21;20.90;99.90
23073;DHT22;34865;51.046;3.732;2022-08-02T07:18:46;21.10;99.90
23073;DHT22;34865;51.046;3.732;2022-08-02T07:21:12;21.60;99.90
23073;DHT22;34865;51.046;3.732;2022-08-02T07:23:38;21.80;99.90
23073;DHT22;34865;51.046;3.732;2022-08-02T07:26:03;21.90;99.90
23073;DHT22;34865;51.046;3.732;2022-08-02T07:28:29;22.00;99.90
23073;DHT22;34865;51.046;3.732;2022-08-02T07:30:55;22.10;99.90
23073;DHT22;34865;51.046;3.732;2022-08-02T07:33:21;22.00;99.90
23073;DHT22;34865;51.046;3.732;2022-08-02T07:35:46;21.80;99.90
23073;DHT22;34865;51.046;3.732;2022-08-02T07:38:12;21.70;99.90
23073;DHT22;34865;51.046;3.732;2022-08-02T07:40:38;22.00;99.90
23073;DHT22;34865;51.046;3.732;2022-08-02T07:43:03;22.20;99.90
23073;DHT22;34865;51.046;3.732;2022-08-02T07:45:29;22.50;99.90
23073;DHT22;34865;51.046;3.732;2022-08-02T07:47:55;22.90;99.90
23073;DHT22;34865;51.046;3.732;2022-08-02T07:50:21;23.60;99.90
23073;DHT22;34865;51.046;3.732;2022-08-02T07:52:48;24.00;99.90
23073;DHT22;34865;51.046;3.732;2022-08-02T07:55:14;24.80;99.90
23073;DHT22;34865;51.046;3.732;2022-08-02T07:57:41;25.00;99.90
23073;DHT22;34865;51.046;3.732;2022-08-02T08:00:08;24.80;99.90
23073;DHT22;34865;51.046;3.732;2022-08-02T08:02:34;25.30;99.90
23073;DHT22;34865;51.046;3.732;2022-08-02T08:05:00;25.10;99.90
23073;DHT22;34865;51.046;3.732;2022-08-02T08:07:26;25.30;99.90
23073;DHT22;34865;51.046;3.732;2022-08-02T08:09:53;25.00;99.90
23073;DHT22;34865;51.046;3.732;2022-08-02T08:12:18;25.70;99.90
23073;DHT22;34865;51.046;3.732;2022-08-02T08:14:44;26.40;99.90
23073;DHT22;34865;51.046;3.732;2022-08-02T08:17:10;28.00;99.90
23073;DHT22;34865;51.046;3.732;2022-08-02T08:19:36;28.60;99.90
23073;DHT22;34865;51.046;3.732;2022-08-02T08:22:01;30.30;99.90
23073;DHT22;34865;51.046;3.732;2022-08-02T08:24:28;30.50;99.90
23073;DHT22;34865;51.046;3.732;2022-08-02T08:26:54;30.80;99.90
23073;DHT22;34865;51.046;3.732;2022-08-02T08:29:20;31.30;99.90
23073;DHT22;34865;51.046;3.732;2022-08-02T08:31:46;31.10;99.90
23073;DHT22;34865;51.046;3.732;2022-08-02T08:34:12;30.50;99.90
23073;DHT22;34865;51.046;3.732;2022-08-02T08:36:39;30.10;99.90
23073;DHT22;34865;51.046;3.732;2022-08-02T08:39:05;29.50;99.90
23073;DHT22;34865;51.046;3.732;2022-08-02T08:41:30;30.80;99.90
23073;DHT22;34865;51.046;3.732;2022-08-02T08:43:56;31.00;99.90
23073;DHT22;34865;51.046;3.732;2022-08-02T08:46:29;30.00;99.90
23073;DHT22;34865;51.046;3.732;2022-08-02T08:49:00;29.50;99.90
23073;DHT22;34865;51.046;3.732;2022-08-02T08:51:30;29.40;99.90
23073;DHT22;34865;51.046;3.732;2022-08-02T08:54:02;30.50;99.90
23073;DHT22;34865;51.046;3.732;2022-08-02T08:56:33;30.50;99.90
23073;DHT22;34865;51.046;3.732;2022-08-02T08:59:00;30.90;99.90
23073;DHT22;34865;51.046;3.732;2022-08-02T09:01:26;31.90;99.90
23073;DHT22;34865;51.046;3.732;2022-08-02T09:03:52;32.50;99.90
23073;DHT22;34865;51.046;3.732;2022-08-02T09:06:18;32.70;99.90
23073;DHT22;34865;51.046;3.732;2022-08-02T09:08:43;32.30;99.90
23073;DHT22;34865;51.046;3.732;2022-08-02T09:11:16;31.70;99.90
23073;DHT22;34865;51.046;3.732;2022-08-02T09:16:33;31.60;99.90
23073;DHT22;34865;51.046;3.732;2022-08-02T09:18:59;31.80;99.90
23073;DHT22;34865;51.046;3.732;2022-08-02T09:21:34;31.80;99.90
23073;DHT22;34865;51.046;3.732;2022-08-02T09:24:00;31.50;99.90
23073;DHT22;34865;51.046;3.732;2022-08-02T09:26:27;30.10;99.90
23073;DHT22;34865;51.046;3.732;2022-08-02T09:29:00;29.50;99.90
23073;DHT22;34865;51.046;3.732;2022-08-02T09:31:26;31.10;99.90
23073;DHT22;34865;51.046;3.732;2022-08-02T09:33:54;32.10;99.90
23073;DHT22;34865;51.046;3.732;2022-08-02T09:36:21;32.10;99.90
23073;DHT22;34865;51.046;3.732;2022-08-02T09:38:59;32.70;99.90
23073;DHT22;34865;51.046;3.732;2022-08-02T09:41:32;31.90;99.90
23073;DHT22;34865;51.046;3.732;2022-08-02T09:43:59;31.80;99.90
23073;DHT22;34865;51.046;3.732;2022-08-02T09:46:27;31.40;99.90
23073;DHT22;34865;51.046;3.732;2022-08-02T09:49:13;31.40;99.90
23073;DHT22;34865;51.046;3.732;2022-08-02T09:54:25;29.50;99.90
23073;DHT22;34865;51.046;3.732;2022-08-02T09:56:54;29.20;99.90
23073;DHT22;34865;51.046;3.732;2022-08-02T09:59:22;28.80;99.90
23073;DHT22;34865;51.046;3.732;2022-08-02T10:01:52;28.80;99.90
23073;DHT22;34865;51.046;3.732;2022-08-02T10:04:22;28.40;99.90
23073;DHT22;34865;51.046;3.732;2022-08-02T10:06:50;28.40;99.90
23073;DHT22;34865;51.046;3.732;2022-08-02T10:09:16;28.80;99.90
23073;DHT22;34865;51.046;3.732;2022-08-02T10:11:42;29.60;99.90
23073;DHT22;34865;51.046;3.732;2022-08-02T10:14:09;29.90;99.90
23073;DHT22;34865;51.046;3.732;2022-08-02T10:16:41;31.30;99.90
23073;DHT22;34865;51.046;3.732;2022-08-02T10:19:07;31.70;99.90
23073;DHT22;34865;51.046;3.732;2022-08-02T10:24:17;31.50;99.90
23073;DHT22;34865;51.046;3.732;2022-08-02T10:26:44;32.00;99.90
23073;DHT22;34865;51.046;3.732;2022-08-02T10:29:15;32.70;99.90
23073;DHT22;34865;51.046;3.732;2022-08-02T10:34:12;32.20;99.90
23073;DHT22;34865;51.046;3.732;2022-08-02T10:36:40;32.70;99.90
23073;DHT22;34865;51.046;3.732;2022-08-02T10:39:06;32.70;99.90
23073;DHT22;34865;51.046;3.732;2022-08-02T10:41:44;33.10;99.90
23073;DHT22;34865;51.046;3.732;2022-08-02T10:44:31;32.30;99.90
23073;DHT22;34865;51.046;3.732;2022-08-02T10:47:22;31.80;99.90
23073;DHT22;34865;51.046;3.732;2022-08-02T10:49:52;32.70;99.90
23073;DHT22;34865;51.046;3.732;2022-08-02T10:52:19;32.70;99.90
23073;DHT22;34865;51.046;3.732;2022-08-02T10:57:23;32.50;99.90
23073;DHT22;34865;51.046;3.732;2022-08-02T11:00:09;32.50;99.90
23073;DHT22;34865;51.046;3.732;2022-08-02T11:02:47;31.50;99.90
23073;DHT22;34865;51.046;3.732;2022-08-02T11:05:15;30.30;99.90
23073;DHT22;34865;51.046;3.732;2022-08-02T11:07:51;29.10;99.90
23073;DHT22;34865;51.046;3.732;2022-08-02T11:10:37;28.80;99.90
23073;DHT22;34865;51.046;3.732;2022-08-02T11:13:16;28.60;99.90
23073;DHT22;34865;51.046;3.732;2022-08-02T11:16:02;28.90;99.90
23073;DHT22;34865;51.046;3.732;2022-08-02T11:21:32;29.30;99.90
23073;DHT22;34865;51.046;3.732;2022-08-02T11:24:27;29.50;99.90
23073;DHT22;34865;51.046;3.732;2022-08-02T11:26:54;28.90;99.90
23073;DHT22;34865;51.046;3.732;2022-08-02T11:29:20;28.80;99.90
23073;DHT22;34865;51.046;3.732;2022-08-02T11:31:46;29.00;99.90
23073;DHT22;34865;51.046;3.732;2022-08-02T11:34:12;29.10;99.90
23073;DHT22;34865;51.046;3.732;2022-08-02T11:36:50;29.10;99.90
23073;DHT22;34865;51.046;3.732;2022-08-02T11:39:21;29.00;99.90
23073;DHT22;34865;51.046;3.732;2022-08-02T11:41:52;28.90;99.90
23073;DHT22;34865;51.046;3.732;2022-08-02T11:44:18;28.80;99.90
23073;DHT22;34865;51.046;3.732;2022-08-02T11:46:51;29.00;99.90
23073;DHT22;34865;51.046;3.732;2022-08-02T11:49:17;29.00;99.90
23073;DHT22;34865;51.046;3.732;2022-08-02T11:51:58;29.10;99.90
23073;DHT22;34865;51.046;3.732;2022-08-02T11:54:28;29.30;99.90
23073;DHT22;34865;51.046;3.732;2022-08-02T11:57:17;29.20;99.90
23073;DHT22;34865;51.046;3.732;2022-08-02T11:59:44;29.30;99.90
23073;DHT22;34865;51.046;3.732;2022-08-02T12:02:11;29.10;99.90
23073;DHT22;34865;51.046;3.732;2022-08-02T12:04:38;29.00;99.90
23073;DHT22;34865;51.046;3.732;2022-08-02T12:07:04;29.00;99.90
23073;DHT22;34865;51.046;3.732;2022-08-02T12:09:32;29.10;99.90
23073;DHT22;34865;51.046;3.732;2022-08-02T12:11:58;29.20;99.90
23073;DHT22;34865;51.046;3.732;2022-08-02T12:14:26;29.40;99.90
23073;DHT22;34865;51.046;3.732;2022-08-02T12:16:52;29.40;99.90
23073;DHT22;34865;51.046;3.732;2022-08-02T12:19:40;29.20;99.90
23073;DHT22;34865;51.046;3.732;2022-08-02T12:24:36;29.00;99.90
23073;DHT22;34865;51.046;3.732;2022-08-02T12:27:02;29.00;99.90
23073;DHT22;34865;51.046;3.732;2022-08-02T12:29:32;28.90;99.90
23073;DHT22;34865;51.046;3.732;2022-08-02T12:31:59;29.00;99.90
23073;DHT22;34865;51.046;3.732;2022-08-02T12:34:27;29.10;99.90
23073;DHT22;34865;51.046;3.732;2022-08-02T12:36:58;29.10;99.90
23073;DHT22;34865;51.046;3.732;2022-08-02T12:39:44;28.80;99.90
23073;DHT22;34865;51.046;3.732;2022-08-02T12:42:11;28.60;99.90
23073;DHT22;34865;51.046;3.732;2022-08-02T12:44:52;28.90;99.90
23073;DHT22;34865;51.046;3.732;2022-08-02T12:47:18;29.00;99.90
23073;DHT22;34865;51.046;3.732;2022-08-02T12:49:46;29.10;99.90
23073;DHT22;34865;51.046;3.732;2022-08-02T12:52:22;29.30;99.90
23073;DHT22;34865;51.046;3.732;2022-08-02T12:54:49;29.50;99.90
23073;DHT22;34865;51.046;3.732;2022-08-02T12:57:17;29.40;99.90
23073;DHT22;34865;51.046;3.732;2022-08-02T12:59:48;29.40;99.90
23073;DHT22;34865;51.046;3.732;2022-08-02T13:02:14;29.40;99.90
23073;DHT22;34865;51.046;3.732;2022-08-02T13:04:41;29.50;99.90
23073;DHT22;34865;51.046;3.732;2022-08-02T13:07:07;29.60;99.90
23073;DHT22;34865;51.046;3.732;2022-08-02T13:09:41;29.80;99.90
23073;DHT22;34865;51.046;3.732;2022-08-02T13:12:10;29.90;99.90
23073;DHT22;34865;51.046;3.732;2022-08-02T13:14:36;29.80;99.90
23073;DHT22;34865;51.046;3.732;2022-08-02T13:17:02;29.90;99.90
23073;DHT22;34865;51.046;3.732;2022-08-02T13:19:27;29.70;99.90
23073;DHT22;34865;51.046;3.732;2022-08-02T13:21:53;29.70;99.90
23073;DHT22;34865;51.046;3.732;2022-08-02T13:24:19;29.90;99.90
23073;DHT22;34865;51.046;3.732;2022-08-02T13:26:45;29.90;99.90
23073;DHT22;34865;51.046;3.732;2022-08-02T13:29:12;29.60;99.90
23073;DHT22;34865;51.046;3.732;2022-08-02T13:31:38;29.50;99.90
23073;DHT22;34865;51.046;3.732;2022-08-02T13:34:07;29.50;99.90
23073;DHT22;34865;51.046;3.732;2022-08-02T13:36:34;29.50;99.90
23073;DHT22;34865;51.046;3.732;2022-08-02T13:39:01;29.60;99.90
23073;DHT22;34865;51.046;3.732;2022-08-02T13:41:29;29.80;99.90
23073;DHT22;34865;51.046;3.732;2022-08-02T13:43:54;29.90;99.90
23073;DHT22;34865;51.046;3.732;2022-08-02T13:46:20;30.20;99.90
23073;DHT22;34865;51.046;3.732;2022-08-02T13:48:46;30.10;99.90
23073;DHT22;34865;51.046;3.732;2022-08-02T13:51:11;30.10;99.90
23073;DHT22;34865;51.046;3.732;2022-08-02T13:53:40;30.20;99.90
23073;DHT22;34865;51.046;3.732;2022-08-02T13:56:06;30.40;99.90
23073;DHT22;34865;51.046;3.732;2022-08-02T13:58:32;30.80;99.90
23073;DHT22;34865;51.046;3.732;2022-08-02T14:00:58;30.70;99.90
23073;DHT22;34865;51.046;3.732;2022-08-02T14:03:24;30.60;99.90
23073;DHT22;34865;51.046;3.732;2022-08-02T14:05:50;30.60;99.90
23073;DHT22;34865;51.046;3.732;2022-08-02T14:08:19;30.40;99.90
23073;DHT22;34865;51.046;3.732;2022-08-02T14:10:48;30.40;99.90
23073;DHT22;34865;51.046;3.732;2022-08-02T14:13:14;30.50;99.90
23073;DHT22;34865;51.046;3.732;2022-08-02T14:15:40;30.70;99.90
23073;DHT22;34865;51.046;3.732;2022-08-02T14:18:05;30.70;99.90
23073;DHT22;34865;51.046;3.732;2022-08-02T14:20:31;30.40;99.90
23073;DHT22;34865;51.046;3.732;2022-08-02T14:22:56;30.10;99.90
23073;DHT22;34865;51.046;3.732;2022-08-02T14:25:22;30.10;99.90
23073;DHT22;34865;51.046;3.732;2022-08-02T14:27:48;30.20;99.90
23073;DHT22;34865;51.046;3.732;2022-08-02T14:30:14;30.50;99.90
23073;DHT22;34865;51.046;3.732;2022-08-02T14:32:39;30.40;99.90
23073;DHT22;34865;51.046;3.732;2022-08-02T14:35:05;30.20;99.90
23073;DHT22;34865;51.046;3.732;2022-08-02T14:37:31;30.10;99.90
23073;DHT22;34865;51.046;3.732;2022-08-02T14:39:57;30.10;99.90
23073;DHT22;34865;51.046;3.732;2022-08-02T14:42:23;29.90;99.90
23073;DHT22;34865;51.046;3.732;2022-08-02T14:44:48;30.20;99.90
23073;DHT22;34865;51.046;3.732;2022-08-02T14:47:14;30.10;99.90
23073;DHT22;34865;51.046;3.732;2022-08-02T14:49:39;30.10;99.90
23073;DHT22;34865;51.046;3.732;2022-08-02T14:52:06;30.00;99.90
23073;DHT22;34865;51.046;3.732;2022-08-02T14:54:31;30.10;99.90
23073;DHT22;34865;51.046;3.732;2022-08-02T14:57:00;30.20;99.90
23073;DHT22;34865;51.046;3.732;2022-08-02T14:59:27;30.30;99.90
23073;DHT22;34865;51.046;3.732;2022-08-02T15:01:53;30.40;99.90
23073;DHT22;34865;51.046;3.732;2022-08-02T15:04:19;30.50;99.90
23073;DHT22;34865;51.046;3.732;2022-08-02T15:06:45;30.40;99.90
23073;DHT22;34865;51.046;3.732;2022-08-02T15:09:11;30.20;99.90
23073;DHT22;34865;51.046;3.732;2022-08-02T15:11:38;29.80;99.90
23073;DHT22;34865;51.046;3.732;2022-08-02T15:14:03;29.20;99.90
23073;DHT22;34865;51.046;3.732;2022-08-02T15:16:29;29.20;99.90
23073;DHT22;34865;51.046;3.732;2022-08-02T15:19:03;29.40;99.90
23073;DHT22;34865;51.046;3.732;2022-08-02T15:21:28;29.70;99.90
23073;DHT22;34865;51.046;3.732;2022-08-02T15:23:54;29.90;99.90
23073;DHT22;34865;51.046;3.732;2022-08-02T15:26:20;29.80;99.90
23073;DHT22;34865;51.046;3.732;2022-08-02T15:28:47;29.70;99.90
23073;DHT22;34865;51.046;3.732;2022-08-02T15:31:13;29.80;99.90
23073;DHT22;34865;51.046;3.732;2022-08-02T15:33:39;29.80;99.90
23073;DHT22;34865;51.046;3.732;2022-08-02T15:36:05;29.90;99.90
23073;DHT22;34865;51.046;3.732;2022-08-02T15:38:33;30.00;99.90
23073;DHT22;34865;51.046;3.732;2022-08-02T15:41:00;29.90;99.90
23073;DHT22;34865;51.046;3.732;2022-08-02T15:43:26;29.80;99.90
23073;DHT22;34865;51.046;3.732;2022-08-02T15:45:52;29.80;99.90
23073;DHT22;34865;51.046;3.732;2022-08-02T15:48:18;29.90;99.90
23073;DHT22;34865;51.046;3.732;2022-08-02T15:50:46;29.70;99.90
23073;DHT22;34865;51.046;3.732;2022-08-02T15:53:12;29.50;99.90
23073;DHT22;34865;51.046;3.732;2022-08-02T15:55:38;29.50;99.90
23073;DHT22;34865;51.046;3.732;2022-08-02T15:58:05;29.50;99.90
23073;DHT22;34865;51.046;3.732;2022-08-02T16:00:32;29.60;99.90
23073;DHT22;34865;51.046;3.732;2022-08-02T16:02:58;29.50;99.90
23073;DHT22;34865;51.046;3.732;2022-08-02T16:05:24;29.60;99.90
23073;DHT22;34865;51.046;3.732;2022-08-02T16:07:50;29.60;99.90
23073;DHT22;34865;51.046;3.732;2022-08-02T16:10:17;29.60;99.90